Погода Еленевона неделю

Подляское воеводство, Польша

19 - 25 июля
  • 19июля
    Сегодня
    +10°
    +24°
    Практически безоблачно
    ВремяПогодаТемператураВлажностьДавлениеВетер, м/сВероятность осадков
    02:00Облачно с прояснениями+14°C89 %751 мм1.7 м/с2 %
    05:00Ясно и безоблачно+13°C94 %750 мм2.0 м/с2 %
    08:00Практически безоблачно+17°C69 %750 мм3.0 м/с2 %
    11:00Небольшая облачность+21°C50 %750 мм4.0 м/с2 %
    14:00Практически безоблачно+23°C45 %749 мм3.7 м/с2 %
    17:00Ясно и безоблачно+23°C46 %748 мм3.9 м/с2 %
    20:00Ясно и безоблачно+20°C58 %748 мм2.5 м/с2 %
    23:00Ясно и безоблачно+14°C81 %748 мм1.7 м/с2 %
  • 20июля
    Суббота
    +14°
    +24°
    Облачно с прояснениями
    ВремяПогодаТемператураВлажностьДавлениеВетер, м/сВероятность осадков
    02:00Ясно и безоблачно+12°C92 %747 мм1.1 м/с2 %
    05:00Ясно и безоблачно+11°C96 %747 мм1.3 м/с2 %
    08:00Ясно и безоблачно+16°C75 %746 мм1.7 м/с2 %
    11:00Ясно и безоблачно+20°C54 %746 мм1.9 м/с2 %
    14:00Облачно с прояснениями+23°C44 %745 мм1.7 м/с2 %
    17:00Облачно с прояснениями+24°C41 %744 мм2.6 м/с3 %
    20:00Ясно и безоблачно+22°C53 %744 мм1.5 м/с2 %
    23:00Ясно и безоблачно+16°C68 %744 мм1.5 м/с2 %
  • 21июля
    Воскресенье
    +14°
    +26°
    Небольшая облачность
    ВремяПогодаТемператураВлажностьДавлениеВетер, м/сВероятность осадков
    02:00Ясно и безоблачно+15°C86 %743 мм0.9 м/с2 %
    05:00Ясно и безоблачно+14°C91 %743 мм1.0 м/с2 %
    08:00Облачно с прояснениями+20°C65 %743 мм1.2 м/с2 %
    11:00Практически безоблачно+23°C46 %743 мм1.9 м/с4 %
    14:00Небольшая облачность+25°C39 %742 мм1.9 м/с8 %
    17:00Небольшая облачность+26°C39 %742 мм2.8 м/с6 %
    20:00Ясно и безоблачно+23°C51 %742 мм1.6 м/с2 %
    23:00Ясно и безоблачно+18°C61 %742 мм1.7 м/с2 %
  • 22июля
    Понедельник
    +16°
    +28°
    Практически безоблачно
    ВремяПогодаТемператураВлажностьДавлениеВетер, м/сВероятность осадков
    02:00Практически безоблачно+16°C74 %742 мм1.0 м/с2 %
    05:00Ясно и безоблачно+15°C85 %742 мм1.2 м/с2 %
    08:00Ясно и безоблачно+22°C56 %743 мм1.6 м/с2 %
    11:00Практически безоблачно+25°C40 %743 мм1.8 м/с4 %
    14:00Практически безоблачно+27°C35 %742 мм1.9 м/с9 %
    17:00Облачно с прояснениями+28°C31 %742 мм2.8 м/с8 %
    20:00Ясно и безоблачно+25°C49 %742 мм1.6 м/с11 %
    23:00Ясно и безоблачно+20°C51 %742 мм1.6 м/с10 %
  • 23июля
    Вторник
    +11°
    +25°
    Облачно с прояснениями
    ВремяПогодаТемператураВлажностьДавлениеВетер, м/сВероятность осадков
    02:00Практически безоблачно+18°C71 %742 мм0.9 м/с18 %
    05:00Облачно с прояснениями+18°C71 %742 мм0.8 м/с26 %
    08:00Облачно с прояснениями+21°C50 %743 мм1.5 м/с28 %
    11:00Облачно с прояснениями+24°C36 %743 мм2.0 м/с35 %
    14:00Облачно с прояснениями+22°C56 %743 мм2.8 м/с38 %
    17:00Пасмурно, небольшой дождь+24°C74 %744 мм3.0 м/с38 %
    20:00Ясно и безоблачно+20°C77 %744 мм3.6 м/с29 %
    23:00Ясно и безоблачно+15°C87 %744 мм2.2 м/с15 %
Мы используем cookies
Соглашаюсь